Time;durP1;ratioP1;P1;durP2;ratioP2;P2;SDS_P1;SDS_P2;PMS_P1;PMS_P2;Temp;Humidity;BMP_temperature;BMP_pressure;BME280_temperature;BME280_humidity;BME280_pressure;Samples;Min_cycle;Max_cycle;Signal;HPM_P1;HPM_P2
2022/02/28 00:00:07;0.00;0.00;0.62;0.00;0.00;0.62;2.43;1.80;;;23.50;23.50;;;;;;2265377;61;20399;-63
2022/02/28 00:02:52;0.00;0.00;0.62;0.00;0.00;0.62;2.90;1.77;;;23.50;23.50;;;;;;2265024;61;20468;-65
2022/02/28 00:05:37;0.00;0.00;0.62;0.00;0.00;0.62;1.80;1.53;;;23.50;23.50;;;;;;2265514;61;20671;-64
2022/02/28 00:08:23;0.00;0.00;0.62;0.00;0.00;0.62;2.63;1.97;;;23.50;23.60;;;;;;2265327;61;20721;-64
2022/02/28 00:11:07;0.00;0.00;0.62;0.00;0.00;0.62;1.90;1.50;;;23.50;23.60;;;;;;2265071;61;20380;-64
2022/02/28 00:13:52;0.00;0.00;0.62;0.00;0.00;0.62;1.90;1.57;;;23.50;23.60;;;;;;2265556;61;20511;-63
2022/02/28 00:16:36;0.00;0.00;0.62;0.00;0.00;0.62;2.37;1.70;;;23.50;23.60;;;;;;2265293;61;20389;-65
2022/02/28 00:19:21;0.00;0.00;0.62;0.00;0.00;0.62;2.17;1.73;;;23.40;23.50;;;;;;2265161;61;20393;-64
2022/02/28 00:22:05;0.00;0.00;0.62;0.00;0.00;0.62;2.83;1.87;;;23.40;23.60;;;;;;2265538;61;20626;-63
2022/02/28 00:24:52;0.00;0.00;0.62;0.00;0.00;0.62;2.20;1.80;;;23.40;23.60;;;;;;2265137;61;20615;-63
2022/02/28 00:27:37;0.00;0.00;0.62;0.00;0.00;0.62;2.20;1.70;;;23.40;23.60;;;;;;2265265;61;20364;-63
2022/02/28 00:30:22;0.00;0.00;0.62;0.00;0.00;0.62;2.47;2.13;;;23.40;23.50;;;;;;2264671;61;20408;-64
2022/02/28 00:33:08;0.00;0.00;0.62;0.00;0.00;0.62;2.80;2.27;;;23.40;23.50;;;;;;2264772;61;20392;-66
2022/02/28 00:35:52;0.00;0.00;0.62;0.00;0.00;0.62;2.17;1.70;;;23.40;23.50;;;;;;2265511;61;20760;-64
2022/02/28 00:38:37;0.00;0.00;0.62;0.00;0.00;0.62;5.00;2.17;;;23.40;23.50;;;;;;2265259;61;20701;-65
2022/02/28 00:41:24;0.00;0.00;0.62;0.00;0.00;0.62;2.37;1.83;;;23.40;23.50;;;;;;2264873;61;20357;-64
2022/02/28 00:44:09;0.00;0.00;0.62;0.00;0.00;0.62;2.33;1.80;;;23.40;23.50;;;;;;2265183;61;20760;-64
2022/02/28 00:46:53;0.00;0.00;0.62;0.00;0.00;0.62;2.60;1.90;;;23.40;23.60;;;;;;2265272;61;20389;-66
2022/02/28 00:49:38;0.00;0.00;0.62;0.00;0.00;0.62;2.00;1.80;;;23.40;23.60;;;;;;2265229;61;20407;-65
2022/02/28 00:52:23;0.00;0.00;0.62;0.00;0.00;0.62;1.70;1.40;;;23.30;23.50;;;;;;2265457;61;20640;-64
2022/02/28 00:55:11;0.00;0.00;0.62;0.00;0.00;0.62;1.97;1.60;;;23.30;23.60;;;;;;2265067;61;20593;-66
2022/02/28 00:57:58;0.00;0.00;0.62;0.00;0.00;0.62;1.80;1.47;;;23.30;23.60;;;;;;2265509;61;20404;-63
2022/02/28 01:00:43;0.00;0.00;0.62;0.00;0.00;0.62;2.40;1.63;;;23.30;23.60;;;;;;2264947;61;20387;-65
2022/02/28 01:03:28;0.00;0.00;0.62;0.00;0.00;0.62;2.20;1.60;;;23.30;23.60;;;;;;2264810;61;20434;-66
2022/02/28 01:06:13;0.00;0.00;0.62;0.00;0.00;0.62;2.40;1.73;;;23.30;23.60;;;;;;2266339;61;20437;-66
2022/02/28 01:08:58;0.00;0.00;0.62;0.00;0.00;0.62;2.20;2.00;;;23.30;23.60;;;;;;2265475;61;20400;-66
2022/02/28 01:11:43;0.00;0.00;0.62;0.00;0.00;0.62;2.20;1.60;;;23.30;23.60;;;;;;2265279;61;20400;-66
2022/02/28 01:14:30;0.00;0.00;0.62;0.00;0.00;0.62;1.83;1.50;;;23.30;23.70;;;;;;2265689;61;20419;-64
2022/02/28 01:17:15;0.00;0.00;0.62;0.00;0.00;0.62;2.30;1.47;;;23.30;23.70;;;;;;2265691;61;20356;-65
2022/02/28 01:20:00;0.00;0.00;0.62;0.00;0.00;0.62;1.97;1.23;;;23.30;23.70;;;;;;2266190;61;20361;-65
2022/02/28 01:22:46;0.00;0.00;0.62;0.00;0.00;0.62;1.73;1.27;;;23.30;23.70;;;;;;2265303;61;20416;-65
2022/02/28 01:25:31;0.00;0.00;0.62;0.00;0.00;0.62;2.10;1.40;;;23.30;23.70;;;;;;2265742;61;20408;-64
2022/02/28 01:28:16;0.00;0.00;0.62;0.00;0.00;0.62;1.90;1.50;;;23.30;23.70;;;;;;2266273;61;20356;-66
2022/02/28 01:31:02;0.00;0.00;0.62;0.00;0.00;0.62;2.00;1.47;;;23.30;23.70;;;;;;2265651;61;20400;-62
2022/02/28 01:33:47;0.00;0.00;0.62;0.00;0.00;0.62;2.10;1.63;;;23.30;23.70;;;;;;2265888;61;20381;-66
2022/02/28 01:36:32;0.00;0.00;0.62;0.00;0.00;0.62;1.60;1.20;;;23.30;23.80;;;;;;2265968;61;20377;-66
2022/02/28 01:39:16;0.00;0.00;0.62;0.00;0.00;0.62;5.00;1.47;;;23.30;24.30;;;;;;2265605;61;20408;-65
2022/02/28 01:42:01;0.00;0.00;0.62;0.00;0.00;0.62;2.33;1.63;;;23.30;23.80;;;;;;2265856;61;20681;-65
2022/02/28 01:44:46;0.00;0.00;0.62;0.00;0.00;0.62;1.93;1.53;;;23.20;23.70;;;;;;2265696;61;20381;-64
2022/02/28 01:47:32;0.00;0.00;0.62;0.00;0.00;0.62;1.70;1.27;;;23.30;23.80;;;;;;2265108;61;20408;-63
2022/02/28 01:50:16;0.00;0.00;0.62;0.00;0.00;0.62;2.30;1.60;;;23.20;23.70;;;;;;2266035;61;20377;-65
2022/02/28 01:53:02;0.00;0.00;0.62;0.00;0.00;0.62;2.03;1.53;;;23.20;23.70;;;;;;2265262;61;20432;-65
2022/02/28 01:55:47;0.00;0.00;0.62;0.00;0.00;0.62;2.00;1.37;;;23.20;23.70;;;;;;2265064;61;20434;-64
2022/02/28 01:58:36;0.00;0.00;0.62;0.00;0.00;0.62;1.87;1.50;;;23.20;23.70;;;;;;2266012;61;20364;-63
2022/02/28 02:01:22;0.00;0.00;0.62;0.00;0.00;0.62;1.53;1.17;;;23.20;23.80;;;;;;2265110;61;20415;-65
2022/02/28 02:04:08;0.00;0.00;0.62;0.00;0.00;0.62;1.80;1.60;;;23.20;23.80;;;;;;2266170;61;20381;-64
2022/02/28 02:06:53;0.00;0.00;0.62;0.00;0.00;0.62;1.80;1.50;;;23.20;23.80;;;;;;2265998;61;20733;-64
2022/02/28 02:09:38;0.00;0.00;0.62;0.00;0.00;0.62;1.77;1.30;;;23.20;23.80;;;;;;2265977;61;20399;-63
2022/02/28 02:12:25;0.00;0.00;0.62;0.00;0.00;0.62;1.80;1.47;;;23.20;23.80;;;;;;2266589;61;20611;-64
2022/02/28 02:15:14;0.00;0.00;0.62;0.00;0.00;0.62;2.00;1.40;;;23.20;23.80;;;;;;2265526;61;20408;-63
2022/02/28 02:18:04;0.00;0.00;0.62;0.00;0.00;0.62;1.50;1.30;;;23.20;23.80;;;;;;2265522;61;20722;-63
2022/02/28 02:20:50;0.00;0.00;0.62;0.00;0.00;0.62;2.23;1.30;;;23.20;23.80;;;;;;2265874;61;20768;-63
2022/02/28 02:23:35;0.00;0.00;0.62;0.00;0.00;0.62;1.60;1.13;;;23.20;23.80;;;;;;2265276;61;20388;-63
2022/02/28 02:26:20;0.00;0.00;0.62;0.00;0.00;0.62;1.60;1.27;;;23.20;23.90;;;;;;2265358;61;20587;-65
2022/02/28 02:29:05;0.00;0.00;0.62;0.00;0.00;0.62;1.80;1.37;;;23.20;23.90;;;;;;2265273;61;20740;-63
2022/02/28 02:31:51;0.00;0.00;0.62;0.00;0.00;0.62;2.00;1.40;;;23.10;23.80;;;;;;2264794;61;20385;-65
2022/02/28 02:34:36;0.00;0.00;0.62;0.00;0.00;0.62;2.00;1.30;;;23.10;23.80;;;;;;2265943;61;20388;-64
2022/02/28 02:37:22;0.00;0.00;0.62;0.00;0.00;0.62;1.87;1.60;;;23.10;23.80;;;;;;2265649;61;20365;-64
2022/02/28 02:40:08;0.00;0.00;0.62;0.00;0.00;0.62;1.60;1.13;;;23.10;23.80;;;;;;2265057;61;20359;-64
2022/02/28 02:42:53;0.00;0.00;0.62;0.00;0.00;0.62;1.67;1.23;;;23.20;23.90;;;;;;2265818;61;20755;-64
2022/02/28 02:45:38;0.00;0.00;0.62;0.00;0.00;0.62;1.50;1.20;;;23.10;23.80;;;;;;2265020;61;20361;-64
2022/02/28 02:48:24;0.00;0.00;0.62;0.00;0.00;0.62;1.90;1.30;;;23.10;23.90;;;;;;2265194;61;20365;-64
2022/02/28 02:51:18;0.00;0.00;0.62;0.00;0.00;0.62;1.60;1.20;;;23.10;23.90;;;;;;2265069;61;20362;-65
2022/02/28 02:54:05;0.00;0.00;0.62;0.00;0.00;0.62;1.90;1.40;;;23.10;23.90;;;;;;2264947;61;20384;-64
2022/02/28 02:56:50;0.00;0.00;0.62;0.00;0.00;0.62;2.37;1.53;;;23.10;23.90;;;;;;2265465;61;20440;-64
2022/02/28 02:59:35;0.00;0.00;0.62;0.00;0.00;0.62;1.77;1.20;;;23.10;23.90;;;;;;2265204;61;20361;-64
2022/02/28 03:02:20;0.00;0.00;0.62;0.00;0.00;0.62;2.13;1.60;;;23.10;23.90;;;;;;2264757;61;20373;-63
2022/02/28 03:05:07;0.00;0.00;0.62;0.00;0.00;0.62;2.10;1.37;;;23.10;23.90;;;;;;2265924;61;20664;-63
2022/02/28 03:07:52;0.00;0.00;0.62;0.00;0.00;0.62;2.67;2.13;;;23.10;23.80;;;;;;2265496;61;20618;-64
2022/02/28 03:10:39;0.00;0.00;0.62;0.00;0.00;0.62;2.07;1.57;;;23.00;23.70;;;;;;2265114;61;20365;-63
2022/02/28 03:13:23;0.00;0.00;0.62;0.00;0.00;0.62;2.00;1.43;;;23.00;23.70;;;;;;2265024;61;20389;-64
2022/02/28 03:16:11;0.00;0.00;0.62;0.00;0.00;0.62;2.37;1.73;;;23.00;23.60;;;;;;2264706;61;20360;-64
2022/02/28 03:18:57;0.00;0.00;0.62;0.00;0.00;0.62;2.83;2.13;;;23.00;23.60;;;;;;2265416;61;20591;-63
2022/02/28 03:21:43;0.00;0.00;0.62;0.00;0.00;0.62;2.20;1.80;;;23.00;23.50;;;;;;2264920;61;20431;-62
2022/02/28 03:24:28;0.00;0.00;0.62;0.00;0.00;0.62;2.30;1.90;;;23.00;23.50;;;;;;2264669;61;20740;-64
2022/02/28 03:27:14;0.00;0.00;0.62;0.00;0.00;0.62;3.57;1.80;;;23.00;23.50;;;;;;2265287;61;20766;-63
2022/02/28 03:30:05;0.00;0.00;0.62;0.00;0.00;0.62;2.50;1.80;;;22.90;23.40;;;;;;2264742;61;20484;-63
2022/02/28 03:32:50;0.00;0.00;0.62;0.00;0.00;0.62;2.20;1.60;;;22.90;23.40;;;;;;2265056;61;20740;-63
2022/02/28 03:35:35;0.00;0.00;0.62;0.00;0.00;0.62;2.70;1.90;;;22.90;23.40;;;;;;2265274;61;20396;-63
2022/02/28 03:38:19;0.00;0.00;0.62;0.00;0.00;0.62;2.10;1.90;;;22.90;23.40;;;;;;2264814;61;20392;-63
2022/02/28 03:41:05;0.00;0.00;0.62;0.00;0.00;0.62;2.50;2.00;;;22.90;23.40;;;;;;2265445;61;20484;-62
2022/02/28 03:43:54;0.00;0.00;0.62;0.00;0.00;0.62;2.40;1.70;;;22.90;23.40;;;;;;2264855;61;20393;-64
2022/02/28 03:46:47;0.00;0.00;0.62;0.00;0.00;0.62;2.57;1.77;;;22.90;23.40;;;;;;2265225;61;20365;-64
2022/02/28 03:49:32;0.00;0.00;0.62;0.00;0.00;0.62;2.50;1.73;;;22.80;23.30;;;;;;2265725;61;20393;-63
2022/02/28 03:52:25;0.00;0.00;0.62;0.00;0.00;0.62;2.10;1.70;;;22.80;23.30;;;;;;2264571;61;20431;-63
2022/02/28 03:55:28;0.00;0.00;0.62;0.00;0.00;0.62;2.13;1.93;;;22.80;23.30;;;;;;2265517;61;20574;-64
2022/02/28 03:58:14;0.00;0.00;0.62;0.00;0.00;0.62;1.93;1.60;;;22.80;23.40;;;;;;2264822;61;20365;-65
2022/02/28 04:01:00;0.00;0.00;0.62;0.00;0.00;0.62;2.50;2.20;;;22.70;23.30;;;;;;2264697;61;20365;-64
2022/02/28 04:03:44;0.00;0.00;0.62;0.00;0.00;0.62;2.40;1.90;;;22.80;23.40;;;;;;2265208;61;20630;-63
2022/02/28 04:06:30;0.00;0.00;0.62;0.00;0.00;0.62;2.20;1.60;;;22.70;23.30;;;;;;2264975;61;20424;-64
2022/02/28 04:09:15;0.00;0.00;0.62;0.00;0.00;0.62;2.30;1.80;;;22.70;23.30;;;;;;2264972;61;20404;-64
2022/02/28 04:12:00;0.00;0.00;0.62;0.00;0.00;0.62;2.60;2.00;;;22.70;23.30;;;;;;2265039;61;20384;-64
2022/02/28 04:14:46;0.00;0.00;0.62;0.00;0.00;0.62;2.23;1.83;;;22.70;23.30;;;;;;2264778;61;20596;-64
2022/02/28 04:17:33;0.00;0.00;0.62;0.00;0.00;0.62;2.80;2.13;;;22.60;23.30;;;;;;2264904;61;20412;-61
2022/02/28 04:20:41;0.00;0.00;0.62;0.00;0.00;0.62;2.60;1.90;;;22.60;23.30;;;;;;2265273;61;20384;-64
2022/02/28 04:23:25;0.00;0.00;0.62;0.00;0.00;0.62;1.93;1.60;;;22.60;23.30;;;;;;2264431;61;20426;-64
2022/02/28 04:26:10;0.00;0.00;0.62;0.00;0.00;0.62;2.43;2.00;;;22.60;23.30;;;;;;2265091;61;20357;-64
2022/02/28 04:28:54;0.00;0.00;0.62;0.00;0.00;0.62;2.23;1.70;;;22.60;23.30;;;;;;2264774;61;20364;-62
2022/02/28 04:31:39;0.00;0.00;0.62;0.00;0.00;0.62;2.10;1.90;;;22.50;23.30;;;;;;2264586;61;20405;-65
2022/02/28 04:34:24;0.00;0.00;0.62;0.00;0.00;0.62;3.20;1.90;;;22.50;23.30;;;;;;2265130;61;20610;-63
2022/02/28 04:37:09;0.00;0.00;0.62;0.00;0.00;0.62;2.37;2.17;;;22.50;23.30;;;;;;2265043;61;20721;-62
2022/02/28 04:39:54;0.00;0.00;0.62;0.00;0.00;0.62;2.20;2.00;;;22.50;23.30;;;;;;2265513;61;20775;-65
2022/02/28 04:42:39;0.00;0.00;0.62;0.00;0.00;0.62;2.40;1.90;;;22.50;23.30;;;;;;2265765;61;20376;-63
2022/02/28 04:45:24;0.00;0.00;0.62;0.00;0.00;0.62;2.77;2.40;;;22.50;23.40;;;;;;2265287;61;20587;-64
2022/02/28 04:48:11;0.00;0.00;0.62;0.00;0.00;0.62;2.23;1.87;;;22.40;23.30;;;;;;2265774;61;20380;-64
2022/02/28 04:51:15;0.00;0.00;0.62;0.00;0.00;0.62;2.07;1.53;;;22.40;23.30;;;;;;2265413;61;20438;-64
2022/02/28 04:54:00;0.00;0.00;0.62;0.00;0.00;0.62;2.00;1.50;;;22.40;23.40;;;;;;2265524;61;20377;-64
2022/02/28 04:56:45;0.00;0.00;0.62;0.00;0.00;0.62;2.00;1.80;;;22.40;23.40;;;;;;2265347;61;20373;-64
2022/02/28 04:59:29;0.00;0.00;0.62;0.00;0.00;0.62;2.30;2.10;;;22.40;23.40;;;;;;2265980;61;20445;-64
2022/02/28 05:02:15;0.00;0.00;0.62;0.00;0.00;0.62;2.13;1.87;;;22.40;23.40;;;;;;2265685;61;20387;-64
2022/02/28 05:05:15;0.00;0.00;0.62;0.00;0.00;0.62;3.20;2.83;;;22.30;23.40;;;;;;2265506;61;20361;-63
2022/02/28 05:08:01;0.00;0.00;0.62;0.00;0.00;0.62;3.73;3.13;;;22.30;23.40;;;;;;2262835;61;20377;-62
2022/02/28 05:10:46;0.00;0.00;0.62;0.00;0.00;0.62;3.37;2.93;;;22.30;23.30;;;;;;2266571;61;20385;-62
2022/02/28 05:13:33;0.00;0.00;0.62;0.00;0.00;0.62;3.07;2.60;;;22.30;23.10;;;;;;2265339;61;20535;-62
2022/02/28 05:16:18;0.00;0.00;0.62;0.00;0.00;0.62;4.10;3.30;;;22.30;23.10;;;;;;2265994;61;20739;-62
2022/02/28 05:19:03;0.00;0.00;0.62;0.00;0.00;0.62;3.77;3.13;;;22.30;23.10;;;;;;2265943;61;20364;-62
2022/02/28 05:21:50;0.00;0.00;0.62;0.00;0.00;0.62;4.80;4.00;;;22.30;23.00;;;;;;2261800;61;20358;-61
2022/02/28 05:24:37;0.00;0.00;0.62;0.00;0.00;0.62;5.53;4.90;;;22.20;22.90;;;;;;2260572;61;20796;-60
2022/02/28 05:27:23;0.00;0.00;0.62;0.00;0.00;0.62;5.57;5.07;;;22.20;22.90;;;;;;2258716;61;20365;-60
2022/02/28 05:30:11;0.00;0.00;0.62;0.00;0.00;0.62;5.47;4.97;;;22.20;22.80;;;;;;2497335;53;20733;-62
2022/02/28 05:32:58;0.00;0.00;0.62;0.00;0.00;0.62;6.37;5.10;;;22.20;22.70;;;;;;2261527;61;20389;-62
2022/02/28 05:35:49;0.00;0.00;0.62;0.00;0.00;0.62;4.97;4.57;;;22.20;22.60;;;;;;2261110;61;20446;-62
2022/02/28 05:38:34;0.00;0.00;0.62;0.00;0.00;0.62;5.73;5.13;;;22.10;22.50;;;;;;2261214;61;20401;-62
2022/02/28 05:41:24;0.00;0.00;0.62;0.00;0.00;0.62;5.50;5.00;;;22.10;22.40;;;;;;2261319;61;20418;-62
2022/02/28 05:44:14;0.00;0.00;0.62;0.00;0.00;0.62;6.50;5.90;;;22.00;22.30;;;;;;2261258;61;20420;-62
2022/02/28 05:46:59;0.00;0.00;0.62;0.00;0.00;0.62;7.53;5.17;;;21.90;22.20;;;;;;2261727;61;20761;-62
2022/02/28 05:49:49;0.00;0.00;0.62;0.00;0.00;0.62;7.10;5.50;;;22.00;22.20;;;;;;2261406;61;20366;-61
2022/02/28 05:52:34;0.00;0.00;0.62;0.00;0.00;0.62;6.50;5.80;;;21.90;22.10;;;;;;2261463;61;20461;-66
2022/02/28 05:55:18;0.00;0.00;0.62;0.00;0.00;0.62;6.40;5.80;;;21.90;22.00;;;;;;2262251;61;20726;-62
2022/02/28 05:58:04;0.00;0.00;0.62;0.00;0.00;0.62;5.20;4.70;;;21.80;22.00;;;;;;2261505;61;20365;-63
2022/02/28 06:00:49;0.00;0.00;0.62;0.00;0.00;0.62;5.70;5.17;;;21.80;22.00;;;;;;2261867;61;20586;-64
2022/02/28 06:03:33;0.00;0.00;0.62;0.00;0.00;0.62;7.37;6.23;;;21.70;21.90;;;;;;2260747;61;20374;-63
2022/02/28 06:06:18;0.00;0.00;0.62;0.00;0.00;0.62;6.60;5.20;;;21.70;22.00;;;;;;2261868;61;20630;-64
2022/02/28 06:09:03;0.00;0.00;0.62;0.00;0.00;0.62;7.10;5.80;;;21.70;22.10;;;;;;2262024;61;20416;-64
2022/02/28 06:11:49;0.00;0.00;0.62;0.00;0.00;0.62;8.47;5.50;;;21.70;22.10;;;;;;2261245;61;20706;-64
2022/02/28 06:14:35;0.00;0.00;0.62;0.00;0.00;0.62;5.00;4.60;;;21.70;22.10;;;;;;2261552;61;20381;-64
2022/02/28 06:17:20;0.00;0.00;0.62;0.00;0.00;0.62;6.10;4.47;;;21.60;22.10;;;;;;2261793;61;20678;-63
2022/02/28 06:20:06;0.00;0.00;0.62;0.00;0.00;0.62;4.67;3.97;;;21.60;22.20;;;;;;2261466;61;20358;-62
2022/02/28 06:22:51;0.00;0.00;0.62;0.00;0.00;0.62;6.00;4.40;;;21.60;22.20;;;;;;2261066;61;20642;-64
2022/02/28 06:25:36;0.00;0.00;0.62;0.00;0.00;0.62;5.20;4.20;;;21.60;22.30;;;;;;2261386;61;20357;-63
2022/02/28 06:28:21;0.00;0.00;0.62;0.00;0.00;0.62;3.97;3.53;;;21.60;22.30;;;;;;2261708;61;20427;-64
2022/02/28 06:31:07;0.00;0.00;0.62;0.00;0.00;0.62;5.77;4.00;;;21.50;22.30;;;;;;2261911;61;20358;-63
2022/02/28 06:33:51;0.00;0.00;0.62;0.00;0.00;0.62;4.23;3.83;;;21.50;22.40;;;;;;2261655;61;20394;-64
2022/02/28 06:36:36;0.00;0.00;0.62;0.00;0.00;0.62;3.90;3.40;;;21.50;22.40;;;;;;2261241;61;20393;-61
2022/02/28 06:39:20;0.00;0.00;0.62;0.00;0.00;0.62;3.87;3.10;;;21.50;22.50;;;;;;2261562;61;20590;-64
2022/02/28 06:42:06;0.00;0.00;0.62;0.00;0.00;0.62;4.37;3.60;;;21.50;22.50;;;;;;2261546;61;20698;-64
2022/02/28 06:44:50;0.00;0.00;0.62;0.00;0.00;0.62;4.40;3.30;;;21.40;22.50;;;;;;2261519;61;20620;-63
2022/02/28 06:47:36;0.00;0.00;0.62;0.00;0.00;0.62;6.83;3.70;;;21.40;22.50;;;;;;2261982;61;20361;-65
2022/02/28 06:50:21;0.00;0.00;0.62;0.00;0.00;0.62;3.17;2.87;;;21.40;22.50;;;;;;2261751;61;20734;-64
2022/02/28 06:53:06;0.00;0.00;0.62;0.00;0.00;0.62;3.77;3.03;;;21.40;22.50;;;;;;2261492;61;20385;-64
2022/02/28 06:55:54;0.00;0.00;0.62;0.00;0.00;0.62;3.63;3.10;;;21.40;22.60;;;;;;2261598;61;20358;-64
2022/02/28 06:58:38;0.00;0.00;0.62;0.00;0.00;0.62;3.60;3.00;;;21.40;22.60;;;;;;2261261;61;20401;-63
2022/02/28 07:01:23;0.00;0.00;0.62;0.00;0.00;0.62;3.27;2.97;;;21.40;22.70;;;;;;2261305;61;20373;-63
2022/02/28 07:04:17;0.00;0.00;0.62;0.00;0.00;0.62;3.70;3.30;;;21.40;22.70;;;;;;2261615;61;20420;-63
2022/02/28 07:07:01;0.00;0.00;0.62;0.00;0.00;0.62;3.40;2.77;;;21.40;22.70;;;;;;2261535;61;20370;-63
2022/02/28 07:09:47;0.00;0.00;0.62;0.00;0.00;0.62;3.10;2.63;;;21.40;22.80;;;;;;2261914;61;20714;-63
2022/02/28 07:12:32;0.00;0.00;0.62;0.00;0.00;0.62;3.20;2.90;;;21.40;22.80;;;;;;2261374;61;20435;-63
2022/02/28 07:15:17;0.00;0.00;0.62;0.00;0.00;0.62;4.10;3.33;;;21.40;22.80;;;;;;2261518;61;20791;-63
2022/02/28 07:18:02;0.00;0.00;0.62;0.00;0.00;0.62;4.03;3.50;;;21.40;22.80;;;;;;2261689;61;20377;-64
2022/02/28 07:20:48;0.00;0.00;0.62;0.00;0.00;0.62;3.53;2.97;;;21.40;23.30;;;;;;2261288;61;20354;-63
2022/02/28 07:23:33;0.00;0.00;0.62;0.00;0.00;0.62;3.20;2.70;;;21.30;22.80;;;;;;2261665;61;20477;-64
2022/02/28 07:26:17;0.00;0.00;0.62;0.00;0.00;0.62;3.37;2.90;;;21.40;22.90;;;;;;2261540;61;20396;-64
2022/02/28 07:29:02;0.00;0.00;0.62;0.00;0.00;0.62;4.20;2.90;;;21.40;22.90;;;;;;2261440;61;20655;-63
2022/02/28 07:31:46;0.00;0.00;0.62;0.00;0.00;0.62;4.20;3.50;;;21.40;22.90;;;;;;2261702;61;20370;-64
2022/02/28 07:34:31;0.00;0.00;0.62;0.00;0.00;0.62;4.03;2.93;;;21.40;22.90;;;;;;2261365;61;20409;-64
2022/02/28 07:37:17;0.00;0.00;0.62;0.00;0.00;0.62;3.23;2.90;;;21.40;22.90;;;;;;2261443;61;20358;-64
2022/02/28 07:40:02;0.00;0.00;0.62;0.00;0.00;0.62;3.20;2.53;;;21.40;22.90;;;;;;2261503;61;20406;-64
2022/02/28 07:42:46;0.00;0.00;0.62;0.00;0.00;0.62;3.30;2.70;;;21.40;23.00;;;;;;2260990;61;20636;-62
2022/02/28 07:45:32;0.00;0.00;0.62;0.00;0.00;0.62;3.20;2.50;;;21.40;23.00;;;;;;2261824;61;20787;-62
2022/02/28 07:48:17;0.00;0.00;0.62;0.00;0.00;0.62;3.43;3.13;;;21.40;23.00;;;;;;2261402;61;20354;-63
2022/02/28 07:51:01;0.00;0.00;0.62;0.00;0.00;0.62;5.70;2.47;;;21.40;23.00;;;;;;2261138;61;20428;-64
2022/02/28 07:53:47;0.00;0.00;0.62;0.00;0.00;0.62;2.63;2.30;;;21.30;22.90;;;;;;2261677;61;20437;-63
2022/02/28 07:56:32;0.00;0.00;0.62;0.00;0.00;0.62;2.53;2.20;;;21.40;23.00;;;;;;2261062;61;20366;-64
2022/02/28 07:59:17;0.00;0.00;0.62;0.00;0.00;0.62;2.50;1.87;;;21.30;23.00;;;;;;2261464;61;20478;-64
2022/02/28 08:02:01;0.00;0.00;0.62;0.00;0.00;0.62;2.83;2.57;;;21.40;23.00;;;;;;2261131;61;20362;-63
2022/02/28 08:04:46;0.00;0.00;0.62;0.00;0.00;0.62;2.27;2.07;;;21.40;23.00;;;;;;2261196;61;20404;-64
2022/02/28 08:07:30;0.00;0.00;0.62;0.00;0.00;0.62;3.10;2.80;;;21.40;23.00;;;;;;2261820;61;20408;-63
2022/02/28 08:10:17;0.00;0.00;0.62;0.00;0.00;0.62;2.20;2.00;;;21.40;23.10;;;;;;2261287;61;20357;-64
2022/02/28 08:13:02;0.00;0.00;0.62;0.00;0.00;0.62;2.70;2.43;;;21.40;23.10;;;;;;2261263;61;20724;-64
2022/02/28 08:15:46;0.00;0.00;0.62;0.00;0.00;0.62;2.40;2.10;;;21.40;23.10;;;;;;2261721;61;20427;-64
2022/02/28 08:18:31;0.00;0.00;0.62;0.00;0.00;0.62;2.50;2.03;;;21.40;23.10;;;;;;2261178;61;20374;-63
2022/02/28 08:21:16;0.00;0.00;0.62;0.00;0.00;0.62;3.13;2.33;;;21.40;23.10;;;;;;2261562;61;20381;-63
2022/02/28 08:24:00;0.00;0.00;0.62;0.00;0.00;0.62;3.00;2.30;;;21.40;23.10;;;;;;2261206;61;20389;-62
2022/02/28 08:26:46;0.00;0.00;0.62;0.00;0.00;0.62;2.67;2.43;;;21.40;23.10;;;;;;2261438;61;20606;-62
2022/02/28 08:29:31;0.00;0.00;0.62;0.00;0.00;0.62;3.00;2.60;;;21.40;23.10;;;;;;2261763;61;20458;-64
2022/02/28 08:32:15;0.00;0.00;0.62;0.00;0.00;0.62;2.50;2.13;;;21.50;23.20;;;;;;2261073;61;20400;-63
2022/02/28 08:35:00;0.00;0.00;0.62;0.00;0.00;0.62;2.60;2.40;;;21.50;23.20;;;;;;2261195;61;20397;-63
2022/02/28 08:37:46;0.00;0.00;0.62;0.00;0.00;0.62;3.53;2.47;;;21.50;23.20;;;;;;2261533;61;20404;-64
2022/02/28 08:40:30;0.00;0.00;0.62;0.00;0.00;0.62;2.20;1.77;;;21.50;23.20;;;;;;2261237;61;20357;-64
2022/02/28 08:43:16;0.00;0.00;0.62;0.00;0.00;0.62;3.37;2.70;;;21.50;23.20;;;;;;2261242;61;20377;-63
2022/02/28 08:46:01;0.00;0.00;0.62;0.00;0.00;0.62;2.40;2.20;;;21.50;23.20;;;;;;2261527;61;20363;-63
2022/02/28 08:48:46;0.00;0.00;0.62;0.00;0.00;0.62;2.63;1.90;;;21.60;23.30;;;;;;2261355;61;20431;-63
2022/02/28 08:51:31;0.00;0.00;0.62;0.00;0.00;0.62;2.67;2.13;;;21.50;23.20;;;;;;2261224;61;20382;-64
2022/02/28 08:54:15;0.00;0.00;0.62;0.00;0.00;0.62;2.67;2.37;;;21.60;23.30;;;;;;2261229;61;20649;-64
2022/02/28 08:57:03;0.00;0.00;0.62;0.00;0.00;0.62;3.20;2.70;;;21.60;23.30;;;;;;2261041;61;20362;-63
2022/02/28 08:59:49;0.00;0.00;0.62;0.00;0.00;0.62;2.63;2.43;;;21.60;23.30;;;;;;2261549;61;20354;-61
2022/02/28 09:02:34;0.00;0.00;0.62;0.00;0.00;0.62;3.17;2.30;;;21.60;23.30;;;;;;2261001;61;20481;-64
2022/02/28 09:05:19;0.00;0.00;0.62;0.00;0.00;0.62;2.33;2.00;;;21.60;23.30;;;;;;2261379;61;20396;-63
2022/02/28 09:08:04;0.00;0.00;0.62;0.00;0.00;0.62;3.00;2.37;;;21.60;23.30;;;;;;2261527;61;20365;-64
2022/02/28 09:10:49;0.00;0.00;0.62;0.00;0.00;0.62;2.80;2.40;;;21.60;23.30;;;;;;2261254;61;20423;-64
2022/02/28 09:13:34;0.00;0.00;0.62;0.00;0.00;0.62;2.67;2.33;;;21.60;23.30;;;;;;2261201;61;20394;-62
2022/02/28 09:16:21;0.00;0.00;0.62;0.00;0.00;0.62;2.67;2.30;;;21.70;23.40;;;;;;2261182;61;20358;-61
2022/02/28 09:19:05;0.00;0.00;0.62;0.00;0.00;0.62;2.47;2.20;;;21.70;23.40;;;;;;2260989;61;20365;-61
2022/02/28 09:21:53;0.00;0.00;0.62;0.00;0.00;0.62;2.90;2.60;;;21.70;23.40;;;;;;2261390;61;20388;-61
2022/02/28 09:24:37;0.00;0.00;0.62;0.00;0.00;0.62;3.83;2.20;;;21.70;23.50;;;;;;2261844;61;20381;-61
2022/02/28 09:27:22;0.00;0.00;0.62;0.00;0.00;0.62;2.53;2.10;;;21.70;23.50;;;;;;2261755;61;20374;-61
2022/02/28 09:30:08;0.00;0.00;0.62;0.00;0.00;0.62;2.60;1.70;;;21.70;23.40;;;;;;2262244;61;20373;-61
2022/02/28 09:32:55;0.00;0.00;0.62;0.00;0.00;0.62;2.33;1.97;;;21.80;23.50;;;;;;2261239;61;20385;-61
2022/02/28 09:35:40;0.00;0.00;0.62;0.00;0.00;0.62;3.37;2.47;;;21.80;23.50;;;;;;2261782;61;20440;-62
2022/02/28 09:38:31;0.00;0.00;0.62;0.00;0.00;0.62;3.03;2.10;;;21.80;23.60;;;;;;2261527;61;20393;-64
2022/02/28 09:41:17;0.00;0.00;0.62;0.00;0.00;0.62;3.10;2.50;;;21.80;23.50;;;;;;2261239;61;20401;-63
2022/02/28 09:44:31;0.00;0.00;0.62;0.00;0.00;0.62;3.13;2.57;;;21.80;23.50;;;;;;2262186;61;20379;-63
2022/02/28 09:47:35;0.00;0.00;0.62;0.00;0.00;0.62;2.47;2.03;;;21.90;23.60;;;;;;2261732;61;20362;-63
2022/02/28 09:50:40;0.00;0.00;0.62;0.00;0.00;0.62;3.10;2.57;;;21.90;23.60;;;;;;2261913;61;20637;-63
2022/02/28 09:53:43;0.00;0.00;0.62;0.00;0.00;0.62;2.50;2.03;;;21.90;23.60;;;;;;2261845;61;20394;-64
2022/02/28 09:56:44;0.00;0.00;0.62;0.00;0.00;0.62;2.87;2.40;;;21.90;23.70;;;;;;2261009;61;20417;-64
2022/02/28 09:59:58;0.00;0.00;0.62;0.00;0.00;0.62;2.53;2.30;;;21.90;23.70;;;;;;2261758;61;20354;-64
2022/02/28 10:02:44;0.00;0.00;0.62;0.00;0.00;0.62;3.17;2.20;;;21.90;23.70;;;;;;2261217;61;20358;-63
2022/02/28 10:05:30;0.00;0.00;0.62;0.00;0.00;0.62;2.50;2.13;;;22.00;23.70;;;;;;2261724;61;20362;-62
2022/02/28 10:08:16;0.00;0.00;0.62;0.00;0.00;0.62;3.07;2.53;;;22.00;23.70;;;;;;2261843;61;20357;-61
2022/02/28 10:11:03;0.00;0.00;0.62;0.00;0.00;0.62;2.90;2.37;;;22.00;23.70;;;;;;2261404;61;20366;-64
2022/02/28 10:13:48;0.00;0.00;0.62;0.00;0.00;0.62;2.57;2.07;;;22.10;23.80;;;;;;2262098;61;20401;-61
2022/02/28 10:16:36;0.00;0.00;0.62;0.00;0.00;0.62;2.83;2.20;;;22.10;23.80;;;;;;2261805;61;20353;-61
2022/02/28 10:19:26;0.00;0.00;0.62;0.00;0.00;0.62;2.53;2.17;;;22.10;23.80;;;;;;2261869;61;20373;-62
2022/02/28 10:22:12;0.00;0.00;0.62;0.00;0.00;0.62;3.30;2.17;;;22.20;23.90;;;;;;2261946;61;20469;-62
2022/02/28 10:24:57;0.00;0.00;0.62;0.00;0.00;0.62;2.60;2.40;;;22.20;23.80;;;;;;2261638;61;20393;-63
2022/02/28 10:28:23;0.00;0.00;0.62;0.00;0.00;0.62;2.93;2.47;;;22.20;23.80;;;;;;2262043;61;20737;-64
2022/02/28 10:31:27;0.00;0.00;0.62;0.00;0.00;0.62;3.40;2.47;;;22.20;23.80;;;;;;2261595;61;20378;-63
2022/02/28 10:35:59;0.00;0.00;0.62;0.00;0.00;0.62;2.37;1.97;;;22.20;23.80;;;;;;2261469;61;20433;-63
2022/02/28 10:37:59;0.00;0.00;0.62;0.00;0.00;0.62;4.23;3.20;;;22.30;23.90;;;;;;2261846;61;20366;-63
2022/02/28 10:40:45;0.00;0.00;0.62;0.00;0.00;0.62;3.03;2.67;;;22.30;23.90;;;;;;2261465;61;20421;-63
2022/02/28 10:43:33;0.00;0.00;0.62;0.00;0.00;0.62;3.23;2.63;;;22.30;23.90;;;;;;2261899;61;20374;-63
2022/02/28 10:46:20;0.00;0.00;0.62;0.00;0.00;0.62;3.27;2.80;;;22.40;23.90;;;;;;2261115;61;20430;-64
2022/02/28 10:49:15;0.00;0.00;0.62;0.00;0.00;0.62;4.27;2.90;;;22.40;23.90;;;;;;2261801;61;20382;-64
2022/02/28 10:52:03;0.00;0.00;0.62;0.00;0.00;0.62;4.30;2.70;;;22.40;23.90;;;;;;2261469;61;20354;-64
2022/02/28 10:54:49;0.00;0.00;0.62;0.00;0.00;0.62;3.50;2.70;;;22.50;24.00;;;;;;2261597;61;20413;-62
2022/02/28 10:57:35;0.00;0.00;0.62;0.00;0.00;0.62;3.50;2.80;;;22.50;24.00;;;;;;2261966;61;20409;-64